Terminal Aerodrome Forecast
Issued by NWS

Home | Current Version | Previous Version | Text Only | Print | Product List | Glossary On
Versions: 1 2 3 4 5 6 7 8 9 10 11 12 13 14 15 16 17 18
499
FTUS43 KTOP 240520
TAFMHK
TAF
KMHK 240520Z 2406/2506 17007KT P6SM BKN025
     FM240800 17007KT P6SM BKN015
     FM241000 17007KT 6SM SHRA BR VCTS BKN015 OVC050CB
     FM241400 18009KT P6SM SCT025 BKN150=

USA.gov is the U.S. government's official web portal to all federal, state and local government web resources and services.